Time;durP1;ratioP1;P1;durP2;ratioP2;P2;SDS_P1;SDS_P2;PMS_P1;PMS_P2;Temp;Humidity;BMP_temperature;BMP_pressure;BME280_temperature;BME280_humidity;BME280_pressure;Samples;Min_cycle;Max_cycle;Signal;HPM_P1;HPM_P2
2020/12/13 00:01:46;;;;;;;47.48;13.90;;;;;;;2.98;87.86;101289.11;1798120;79;21228;-86
2020/12/13 00:04:12;;;;;;;46.90;12.88;;;;;;;3.13;87.25;101297.31;1794306;79;21050;-87
2020/12/13 00:06:38;;;;;;;38.63;12.00;;;;;;;3.35;87.08;101290.59;1798187;79;20995;-87
2020/12/13 00:09:05;;;;;;;34.80;9.95;;;;;;;3.26;86.67;101291.25;1798104;79;20920;-87
2020/12/13 00:11:35;;;;;;;39.10;10.48;;;;;;;3.31;86.03;101289.34;1797991;79;21240;-87
2020/12/13 00:13:59;;;;;;;38.48;11.20;;;;;;;3.20;86.26;101281.37;1776113;79;21559;-87
2020/12/13 00:16:25;;;;;;;42.03;11.83;;;;;;;3.20;86.38;101296.02;1797974;79;20952;-87
2020/12/13 00:18:50;;;;;;;41.00;11.33;;;;;;;3.18;86.46;101298.89;1798164;79;20995;-87
2020/12/13 00:21:17;;;;;;;37.95;12.75;;;;;;;3.49;85.85;101291.00;1798039;79;21031;-87
2020/12/13 00:23:44;;;;;;;45.70;13.13;;;;;;;3.16;86.43;101288.12;1797981;79;21110;-87
2020/12/13 00:26:11;;;;;;;51.77;13.60;;;;;;;3.38;85.73;101286.20;1797957;79;21138;-87
2020/12/13 00:28:39;;;;;;;47.30;13.43;;;;;;;3.12;86.70;101286.87;1797921;79;21551;-87
2020/12/13 00:31:09;;;;;;;51.23;14.25;;;;;;;2.85;88.02;101273.83;1797796;79;21142;-87
2020/12/13 00:33:36;;;;;;;47.27;13.60;;;;;;;3.09;87.13;101269.92;1789273;79;21552;-86
2020/12/13 00:36:02;;;;;;;44.45;13.20;;;;;;;3.06;86.92;101278.30;1797881;79;21579;-86
2020/12/13 00:38:28;;;;;;;41.33;11.70;;;;;;;2.88;87.34;101281.43;1797869;79;21176;-87
2020/12/13 00:40:53;;;;;;;41.55;13.00;;;;;;;3.32;85.88;101286.47;1797857;79;20925;-87
2020/12/13 00:43:19;;;;;;;48.15;13.03;;;;;;;3.25;86.21;101275.48;1797975;79;20916;-87
2020/12/13 00:45:45;;;;;;;51.73;14.55;;;;;;;3.28;85.97;101271.91;1798024;79;21099;-87
2020/12/13 00:48:11;;;;;;;42.73;16.82;;;;;;;3.25;86.04;101264.83;1798102;78;20948;-87
2020/12/13 00:50:40;;;;;;;59.48;17.45;;;;;;;3.11;86.29;101259.91;1801295;79;21227;-87
2020/12/13 00:53:07;;;;;;;52.15;16.90;;;;;;;2.94;87.23;101263.36;1813977;79;21169;-87
2020/12/13 00:55:33;;;;;;;47.55;13.98;;;;;;;2.88;88.18;101258.80;1814191;79;21145;-87
2020/12/13 00:58:00;;;;;;;39.63;14.07;;;;;;;2.73;89.00;101258.89;1814154;79;21149;-87
2020/12/13 01:00:27;;;;;;;47.38;15.18;;;;;;;2.94;88.14;101254.89;1814266;78;21086;-87
2020/12/13 01:02:57;;;;;;;59.18;16.35;;;;;;;3.16;86.47;101249.50;1791350;79;21312;-87
2020/12/13 01:05:21;;;;;;;47.93;15.88;;;;;;;2.70;88.71;101244.13;1814676;78;21200;-87
2020/12/13 01:07:47;;;;;;;57.00;17.12;;;;;;;2.61;88.84;101237.30;1814125;79;20947;-86
2020/12/13 01:10:13;;;;;;;54.85;18.42;;;;;;;2.73;89.03;101239.74;1814260;79;21026;-86
2020/12/13 01:12:41;;;;;;;56.85;16.50;;;;;;;2.80;88.35;101242.48;1814252;79;20928;-87
2020/12/13 01:15:08;;;;;;;49.53;14.90;;;;;;;3.09;86.81;101236.16;1814105;78;21221;-87
2020/12/13 01:17:34;;;;;;;42.58;14.15;;;;;;;3.09;85.72;101231.31;1814180;79;21214;-87
2020/12/13 01:20:00;;;;;;;57.85;15.98;;;;;;;3.28;84.70;101230.63;1814302;78;20963;-87
2020/12/13 01:22:26;;;;;;;53.00;15.85;;;;;;;2.99;86.55;101224.19;1814307;79;21034;-86
2020/12/13 01:24:54;;;;;;;52.53;14.55;;;;;;;2.99;86.90;101225.00;1814364;79;20961;-87
2020/12/13 01:27:20;;;;;;;56.23;17.35;;;;;;;3.30;85.10;101225.94;1814288;79;22236;-87
2020/12/13 01:29:46;;;;;;;56.02;17.90;;;;;;;3.22;85.48;101251.38;1814128;79;20955;-87
2020/12/13 01:32:12;;;;;;;55.88;18.07;;;;;;;2.95;86.35;101243.21;1814461;79;20881;-87
2020/12/13 01:34:38;;;;;;;50.83;17.17;;;;;;;2.67;86.87;101235.19;1814205;79;20975;-87
2020/12/13 01:37:04;;;;;;;52.15;17.70;;;;;;;2.45;88.87;101234.40;1814179;79;20916;-87
2020/12/13 01:39:30;;;;;;;51.08;16.65;;;;;;;3.02;86.56;101235.27;1814386;79;21183;-87
2020/12/13 01:42:00;;;;;;;45.70;13.90;;;;;;;3.02;86.58;101252.57;1814219;79;21090;-87
2020/12/13 01:44:35;;;;;;;48.08;15.88;;;;;;;2.78;88.16;101241.03;1814277;79;21607;-87
2020/12/13 01:47:06;;;;;;;45.83;15.35;;;;;;;2.76;87.25;101245.70;1814375;79;21153;-87
2020/12/13 01:49:41;;;;;;;51.02;17.23;;;;;;;2.62;88.34;101235.48;1814271;79;21098;-87
2020/12/13 01:55:05;;;;;;;42.85;14.45;;;;;;;2.52;88.89;101219.00;1814338;79;21662;-87
2020/12/13 01:57:38;;;;;;;33.45;12.65;;;;;;;2.56;88.85;101226.42;1812689;79;21106;-87
2020/12/13 02:00:14;;;;;;;41.93;12.73;;;;;;;2.63;87.74;101220.64;1814575;79;21626;-87
2020/12/13 02:02:53;;;;;;;45.95;12.88;;;;;;;2.79;87.70;101215.53;1814292;79;21354;-87
2020/12/13 02:05:20;;;;;;;42.05;12.40;;;;;;;2.60;88.37;101213.04;1811428;78;21460;-87
2020/12/13 02:07:49;;;;;;;43.78;14.87;;;;;;;2.50;88.51;101210.72;1814272;79;21109;-87
2020/12/13 02:10:15;;;;;;;45.15;16.00;;;;;;;2.65;88.03;101215.95;1814226;79;21063;-86
2020/12/13 02:12:42;;;;;;;47.62;15.03;;;;;;;2.56;88.65;101222.44;1814250;79;21106;-86
2020/12/13 02:15:11;;;;;;;41.13;14.35;;;;;;;2.70;86.82;101221.50;1814188;79;21161;-86
2020/12/13 02:17:37;;;;;;;51.60;15.15;;;;;;;2.68;87.18;101236.86;1814264;79;21259;-86
2020/12/13 02:20:13;;;;;;;40.98;13.70;;;;;;;2.83;86.18;101243.43;1814143;79;21221;-86
2020/12/13 02:22:40;;;;;;;45.70;14.63;;;;;;;2.75;86.39;101249.39;1814002;79;21137;-87
2020/12/13 02:25:21;;;;;;;41.77;15.00;;;;;;;3.01;85.29;101247.45;1814238;78;21578;-87
2020/12/13 02:27:49;;;;;;;43.73;14.20;;;;;;;2.88;86.07;101241.50;1814239;79;21083;-86
2020/12/13 02:30:15;;;;;;;47.73;15.05;;;;;;;3.08;84.77;101245.65;1814146;79;21531;-87
2020/12/13 02:32:42;;;;;;;46.42;14.10;;;;;;;2.88;85.51;101245.02;1814084;78;21162;-86
2020/12/13 02:35:10;;;;;;;42.98;12.82;;;;;;;2.64;86.15;101235.58;1791492;79;21146;-88
2020/12/13 02:37:36;;;;;;;41.00;13.08;;;;;;;2.57;87.11;101241.88;1814216;79;21150;-86
2020/12/13 02:40:04;;;;;;;38.60;13.75;;;;;;;2.76;85.97;101256.36;1814318;79;20916;-86
2020/12/13 02:42:30;;;;;;;36.60;13.00;;;;;;;2.53;86.26;101241.44;1814169;79;21208;-85
2020/12/13 02:44:55;;;;;;;37.70;13.48;;;;;;;2.60;86.42;101240.98;1814137;79;20907;-87
2020/12/13 02:47:21;;;;;;;37.83;13.45;;;;;;;2.60;86.27;101233.00;1814190;79;21007;-87
2020/12/13 02:49:47;;;;;;;39.98;13.28;;;;;;;2.71;85.75;101234.33;1814163;79;20923;-87
2020/12/13 02:52:16;;;;;;;35.28;11.60;;;;;;;2.75;84.85;101243.56;1810510;78;20939;-86
2020/12/13 02:54:42;;;;;;;44.80;15.50;;;;;;;2.70;85.83;101262.75;1805820;79;21224;-86
2020/12/13 02:57:08;;;;;;;39.13;13.30;;;;;;;2.58;85.40;101253.64;1808802;79;20987;-86
2020/12/13 02:59:34;;;;;;;43.25;12.80;;;;;;;2.75;84.64;101262.70;1808569;79;21035;-87
2020/12/13 03:02:00;;;;;;;41.45;11.30;;;;;;;2.63;84.51;101251.75;1808774;79;20940;-86
2020/12/13 03:04:25;;;;;;;37.35;10.10;;;;;;;2.46;85.45;101246.67;1808695;79;20959;-86
2020/12/13 03:06:51;;;;;;;37.73;10.82;;;;;;;2.52;85.38;101245.09;1808857;79;21253;-87
2020/12/13 03:09:17;;;;;;;38.20;10.68;;;;;;;2.81;84.46;101244.63;1808785;79;21103;-87
2020/12/13 03:11:43;;;;;;;32.38;10.85;;;;;;;2.49;85.08;101244.96;1808727;79;20987;-86
2020/12/13 03:14:09;;;;;;;31.85;10.88;;;;;;;2.35;85.29;101233.05;1808820;79;21002;-87
2020/12/13 03:16:35;;;;;;;37.93;12.15;;;;;;;2.59;84.59;101247.80;1808778;79;21103;-86
2020/12/13 03:19:01;;;;;;;34.18;11.28;;;;;;;2.61;85.12;101242.61;1808701;79;21042;-87
2020/12/13 03:21:27;;;;;;;35.38;13.20;;;;;;;2.50;84.83;101237.83;1808710;79;20959;-86
2020/12/13 03:23:53;;;;;;;35.55;12.88;;;;;;;2.49;84.95;101248.95;1808815;79;20951;-86
2020/12/13 03:26:21;;;;;;;35.10;11.73;;;;;;;2.35;85.71;101238.38;1808826;79;20940;-86
2020/12/13 03:28:46;;;;;;;39.45;11.15;;;;;;;2.13;86.82;101242.36;1808786;79;21067;-86
2020/12/13 03:31:12;;;;;;;37.38;11.68;;;;;;;2.59;85.12;101243.33;1808770;79;21228;-86
2020/12/13 03:33:38;;;;;;;37.67;12.82;;;;;;;2.47;85.28;101250.15;1808556;79;20983;-85
2020/12/13 03:36:04;;;;;;;44.63;14.30;;;;;;;2.32;85.95;101246.73;1808837;79;21578;-86
2020/12/13 03:38:30;;;;;;;38.28;11.63;;;;;;;2.31;85.48;101239.27;1804961;79;20944;-87
2020/12/13 03:44:36;;;;;;;29.25;10.80;;;;;;;2.57;84.96;101247.20;1808698;79;21212;-86
2020/12/13 03:47:02;;;;;;;33.55;12.45;;;;;;;2.59;84.50;101248.66;1808737;79;21106;-87
2020/12/13 03:49:31;;;;;;;36.63;11.75;;;;;;;2.68;83.90;101246.17;1808720;79;20943;-86
2020/12/13 03:51:56;;;;;;;38.08;11.18;;;;;;;2.42;85.21;101248.08;1808748;79;21757;-86
2020/12/13 03:54:22;;;;;;;33.13;11.18;;;;;;;2.54;84.73;101259.03;1808777;79;20908;-86
2020/12/13 03:56:48;;;;;;;35.48;11.53;;;;;;;2.56;84.76;101263.67;1808830;79;21166;-86
2020/12/13 03:59:14;;;;;;;30.88;10.82;;;;;;;2.50;84.83;101255.94;1808672;79;21031;-86
2020/12/13 04:01:39;;;;;;;36.60;11.33;;;;;;;2.65;84.30;101255.05;1808701;79;20955;-86
2020/12/13 04:04:05;;;;;;;42.48;13.00;;;;;;;2.60;84.25;101248.96;1786172;79;20948;-86
2020/12/13 04:06:31;;;;;;;35.98;11.68;;;;;;;2.52;84.42;101248.27;1808802;79;21621;-86
2020/12/13 04:08:57;;;;;;;36.20;11.63;;;;;;;2.52;84.35;101242.43;1808660;79;21216;-86
2020/12/13 04:11:23;;;;;;;29.42;10.63;;;;;;;2.55;84.33;101244.70;1808641;79;21185;-86
2020/12/13 04:13:49;;;;;;;24.80;9.75;;;;;;;2.58;84.13;101253.64;1808753;79;21549;-86
2020/12/13 04:16:15;;;;;;;41.20;11.80;;;;;;;2.30;84.74;101240.80;1808750;79;20893;-86
2020/12/13 04:18:41;;;;;;;55.60;15.20;;;;;;;2.36;85.25;101243.52;1785750;79;38915;-86
2020/12/13 04:21:07;;;;;;;77.80;20.25;;;;;;;2.38;84.87;101248.63;1786346;79;21543;-85
2020/12/13 04:23:33;;;;;;;64.75;19.77;;;;;;;2.21;84.71;101246.74;1808602;79;21153;-86
2020/12/13 04:25:59;;;;;;;47.95;13.88;;;;;;;2.39;84.69;101247.64;1808855;79;21015;-86
2020/12/13 04:28:25;;;;;;;44.35;11.75;;;;;;;2.57;84.15;101268.48;1808714;79;21023;-86
2020/12/13 04:30:51;;;;;;;42.45;11.70;;;;;;;2.66;83.85;101260.68;1808874;79;21600;-86
2020/12/13 04:33:16;;;;;;;30.60;11.05;;;;;;;2.24;84.57;101259.15;1786037;79;21935;-86
2020/12/13 04:35:42;;;;;;;39.05;11.00;;;;;;;2.52;83.76;101255.73;1808685;79;21011;-86
2020/12/13 04:38:08;;;;;;;35.80;11.03;;;;;;;2.58;83.83;101264.80;1808621;79;20904;-86
2020/12/13 04:40:35;;;;;;;43.08;12.98;;;;;;;2.52;83.17;101266.38;1808691;79;21085;-86
2020/12/13 04:43:02;;;;;;;40.83;11.78;;;;;;;2.23;84.20;101249.50;1808719;79;21050;-86
2020/12/13 04:45:29;;;;;;;34.78;10.95;;;;;;;2.19;85.06;101252.75;1812360;79;21165;-87
2020/12/13 04:48:08;;;;;;;38.63;11.10;;;;;;;2.33;84.37;101245.73;1808530;79;21185;-86
2020/12/13 04:50:39;;;;;;;38.08;10.72;;;;;;;2.37;84.25;101246.48;1808570;79;21102;-87
2020/12/13 04:53:07;;;;;;;34.95;10.55;;;;;;;2.28;83.98;101263.06;1808751;79;21169;-86
2020/12/13 04:55:57;;;;;;;38.75;10.98;;;;;;;2.38;83.51;101260.13;1808737;79;21145;-86
2020/12/13 04:58:27;;;;;;;39.38;12.50;;;;;;;2.24;84.28;101259.66;1806972;79;21145;-86
2020/12/13 05:00:58;;;;;;;39.45;11.63;;;;;;;2.08;84.52;101264.69;1808529;79;21039;-86
2020/12/13 05:03:26;;;;;;;36.95;10.40;;;;;;;2.36;83.18;101271.95;1781268;80;21150;-87
2020/12/13 05:05:58;;;;;;;40.00;11.12;;;;;;;2.21;84.25;101270.67;1781174;79;21607;-87
2020/12/13 05:08:20;;;;;;;28.90;9.43;;;;;;;2.41;83.42;101275.70;1777466;80;21175;-86
2020/12/13 05:10:46;;;;;;;31.93;8.78;;;;;;;2.44;83.05;101267.82;1781221;80;21961;-85
2020/12/13 05:13:12;;;;;;;29.52;9.68;;;;;;;2.33;82.75;101252.39;1781559;80;21581;-87
2020/12/13 05:15:39;;;;;;;29.20;9.08;;;;;;;2.28;82.85;101260.41;1781245;80;21044;-86
2020/12/13 05:18:06;;;;;;;29.75;8.95;;;;;;;2.17;83.69;101258.23;1781391;80;21163;-86
2020/12/13 05:20:34;;;;;;;37.67;9.08;;;;;;;2.30;82.80;101263.41;1781275;80;21080;-86
2020/12/13 05:23:01;;;;;;;25.23;8.68;;;;;;;2.10;83.26;101257.36;1781401;80;21218;-86
2020/12/13 05:25:36;;;;;;;33.02;9.38;;;;;;;2.24;83.13;101267.13;1781436;80;21111;-86
2020/12/13 05:28:08;;;;;;;43.90;10.28;;;;;;;2.32;82.46;101266.17;1781545;80;21150;-86
2020/12/13 05:30:45;;;;;;;36.73;9.90;;;;;;;2.15;83.02;101258.95;1781511;80;21099;-87
2020/12/13 05:33:29;;;;;;;39.40;11.08;;;;;;;2.26;82.38;101261.60;1781543;80;21211;-87
2020/12/13 05:36:01;;;;;;;27.15;8.68;;;;;;;2.15;82.71;101262.94;1781376;80;21122;-86
2020/12/13 05:38:34;;;;;;;27.82;8.75;;;;;;;2.12;82.78;101265.97;1741405;82;21186;-88
2020/12/13 05:41:00;;;;;;;36.10;9.25;;;;;;;2.13;82.61;101280.09;1733632;82;21115;-87
2020/12/13 05:43:30;;;;;;;25.90;8.75;;;;;;;2.26;82.56;101273.09;1735525;82;21143;-87
2020/12/13 05:53:22;;;;;;;28.70;8.08;;;;;;;2.04;83.64;101284.17;1735435;81;21242;-87
2020/12/13 05:55:48;;;;;;;31.23;9.90;;;;;;;2.32;82.75;101272.81;1710839;82;21219;-87
2020/12/13 05:58:14;;;;;;;24.77;7.75;;;;;;;2.21;83.22;101281.31;1735304;82;21217;-86
2020/12/13 06:00:41;;;;;;;38.40;11.50;;;;;;;2.04;83.69;101281.52;1753888;81;21182;-87
2020/12/13 06:03:10;;;;;;;30.30;9.50;;;;;;;2.09;83.60;101288.09;1763558;81;20906;-86
2020/12/13 06:05:38;;;;;;;27.80;8.38;;;;;;;2.40;82.39;101289.98;1763654;81;21182;-87
2020/12/13 06:08:05;;;;;;;22.87;7.20;;;;;;;2.25;82.98;101294.02;1760034;81;21207;-87
2020/12/13 06:10:35;;;;;;;24.27;8.78;;;;;;;2.52;81.74;101302.28;1738536;81;21088;-87
2020/12/13 06:13:06;;;;;;;25.92;7.65;;;;;;;2.33;82.07;101310.38;1739178;82;21573;-87
2020/12/13 06:15:33;;;;;;;28.98;9.45;;;;;;;2.32;82.51;101302.58;1738477;82;21029;-87
2020/12/13 06:18:01;;;;;;;30.08;8.75;;;;;;;2.46;81.35;101308.36;1713643;82;21195;-87
2020/12/13 06:20:27;;;;;;;26.07;7.87;;;;;;;2.31;82.23;101312.91;1738353;82;21199;-86
2020/12/13 06:22:59;;;;;;;29.95;8.90;;;;;;;2.08;84.14;101299.24;1738408;82;21176;-87
2020/12/13 06:25:25;;;;;;;30.02;7.97;;;;;;;2.35;82.61;101299.55;1738387;82;21189;-87
2020/12/13 06:27:52;;;;;;;29.60;8.55;;;;;;;2.38;82.13;101296.03;1713617;82;21161;-86
2020/12/13 06:30:20;;;;;;;32.35;8.95;;;;;;;2.56;81.64;101284.95;1738613;82;21131;-86
2020/12/13 06:32:51;;;;;;;35.63;11.35;;;;;;;2.07;83.29;101280.33;1738329;82;21478;-87
2020/12/13 06:35:15;;;;;;;33.88;9.38;;;;;;;1.85;84.33;101282.59;1766718;80;21187;-86
2020/12/13 06:37:41;;;;;;;28.67;10.50;;;;;;;2.06;84.37;101282.67;1786788;80;21442;-87
2020/12/13 06:40:13;;;;;;;32.30;10.65;;;;;;;2.13;84.05;101282.23;1786807;80;21103;-87
2020/12/13 06:42:43;;;;;;;23.90;8.85;;;;;;;2.50;82.52;101283.87;1786654;80;21627;-88
2020/12/13 06:45:12;;;;;;;35.78;9.45;;;;;;;2.39;82.03;101322.11;1783285;80;21100;-87
2020/12/13 06:47:44;;;;;;;33.63;9.45;;;;;;;2.38;81.94;101289.86;1753194;81;21209;-87
2020/12/13 06:50:22;;;;;;;31.75;9.75;;;;;;;2.30;82.59;101275.38;1748906;82;21348;-86
2020/12/13 06:52:50;;;;;;;29.90;9.78;;;;;;;2.14;83.91;101280.39;1697859;84;21107;-86
2020/12/13 06:55:17;;;;;;;30.88;9.65;;;;;;;2.14;83.19;101279.88;1699910;84;21134;-86
2020/12/13 06:57:46;;;;;;;44.00;14.15;;;;;;;2.13;83.84;101276.91;1676526;84;21290;-86
2020/12/13 07:00:12;;;;;;;35.15;11.12;;;;;;;2.60;82.17;101281.40;1700187;84;21250;-86
2020/12/13 07:02:54;;;;;;;28.10;8.33;;;;;;;2.71;81.74;101295.53;1700277;84;21213;-86
2020/12/13 07:05:21;;;;;;;30.92;9.28;;;;;;;2.60;81.40;101288.87;1701418;83;21091;-87
2020/12/13 07:07:54;;;;;;;30.30;10.35;;;;;;;2.52;81.40;101300.95;1700302;84;21071;-87
2020/12/13 07:10:20;;;;;;;31.80;9.58;;;;;;;2.46;81.61;101297.22;1700184;84;27592;-88
2020/12/13 07:12:55;;;;;;;35.90;10.95;;;;;;;2.57;81.98;101305.21;1700409;84;21095;-87
2020/12/13 07:17:50;;;;;;;34.10;11.97;;;;;;;2.02;83.26;101298.15;1520494;93;21310;-87
2020/12/13 07:20:16;;;;;;;32.75;10.93;;;;;;;2.29;83.00;101302.45;1505141;94;21759;-87
2020/12/13 07:22:42;;;;;;;34.18;11.03;;;;;;;2.21;83.22;101303.91;1503943;94;21277;-87
2020/12/13 07:25:08;;;;;;;34.33;10.85;;;;;;;2.11;84.54;101303.37;1524192;94;21071;-87
2020/12/13 07:27:35;;;;;;;32.00;9.25;;;;;;;2.46;83.62;101311.84;1524367;94;21140;-87
2020/12/13 07:30:00;;;;;;;31.37;9.45;;;;;;;2.64;82.10;101303.94;1526119;93;21590;-88
2020/12/13 07:32:26;;;;;;;39.98;11.20;;;;;;;2.45;82.81;101295.58;1529309;93;21001;-87
2020/12/13 07:34:53;;;;;;;30.72;10.45;;;;;;;2.28;84.34;101298.97;1529190;92;21038;-87
2020/12/13 07:37:21;;;;;;;27.32;10.13;;;;;;;2.19;84.41;101288.64;1529135;93;21293;-87
2020/12/13 07:39:47;;;;;;;35.10;10.98;;;;;;;2.01;85.82;101279.75;1529333;93;21222;-87
2020/12/13 07:42:13;;;;;;;30.35;10.00;;;;;;;2.08;85.88;101285.95;1533924;92;21004;-86
2020/12/13 07:44:41;;;;;;;33.30;10.85;;;;;;;2.14;84.39;101275.89;1593580;87;21089;-86
2020/12/13 07:47:08;;;;;;;32.28;10.60;;;;;;;2.28;84.21;101284.85;1630905;87;21166;-87
2020/12/13 07:49:34;;;;;;;34.25;9.73;;;;;;;2.22;84.44;101291.74;1630897;87;21643;-87
2020/12/13 07:52:01;;;;;;;34.70;11.57;;;;;;;2.21;84.84;101286.12;1628366;87;21535;-87
2020/12/13 07:54:30;;;;;;;39.38;11.03;;;;;;;2.24;84.36;101279.09;1578926;89;21147;-86
2020/12/13 07:56:59;;;;;;;30.50;10.18;;;;;;;2.10;85.27;101279.95;1600039;89;21194;-88
2020/12/13 07:59:27;;;;;;;34.00;9.85;;;;;;;2.28;84.84;101279.02;1578907;89;21116;-87
2020/12/13 08:01:56;;;;;;;29.75;9.48;;;;;;;2.39;83.79;101296.34;1600252;89;21542;-86
2020/12/13 08:04:38;;;;;;;32.80;9.48;;;;;;;2.30;83.85;101295.31;1599705;88;22377;-87
2020/12/13 08:07:10;;;;;;;35.92;11.15;;;;;;;2.50;83.96;101296.36;1600163;89;20945;-86
2020/12/13 08:12:12;;;;;;;46.83;11.90;;;;;;;2.19;85.33;101280.16;1600904;87;21261;-87
2020/12/13 08:14:39;;;;;;;38.48;11.22;;;;;;;2.20;85.80;101276.47;1676660;82;21092;-86
2020/12/13 08:17:05;;;;;;;34.18;11.22;;;;;;;2.17;86.33;101272.86;1740292;82;21702;-87
2020/12/13 08:19:39;;;;;;;34.25;11.57;;;;;;;2.48;84.85;101273.09;1740359;82;21240;-87
2020/12/13 08:22:17;;;;;;;36.30;11.55;;;;;;;2.33;85.57;101278.98;1655481;86;21174;-87
2020/12/13 08:24:44;;;;;;;43.20;12.85;;;;;;;2.08;86.12;101270.51;1605798;89;22662;-87
2020/12/13 08:27:11;;;;;;;40.10;12.58;;;;;;;2.25;86.18;101270.61;1606053;89;21616;-87
2020/12/13 08:29:37;;;;;;;34.43;12.80;;;;;;;2.41;85.47;101271.71;1605838;89;22350;-87
2020/12/13 08:32:12;;;;;;;40.78;12.13;;;;;;;2.12;87.22;101283.73;1606010;89;21522;-86
2020/12/13 08:34:39;;;;;;;33.10;11.30;;;;;;;2.02;86.53;101273.41;1605968;89;21275;-87
2020/12/13 08:37:06;;;;;;;41.70;14.03;;;;;;;2.23;86.54;101273.44;1605967;89;21223;-87
2020/12/13 08:39:36;;;;;;;46.77;13.43;;;;;;;2.30;86.62;101267.39;1605876;89;21171;-87
2020/12/13 08:42:05;;;;;;;39.48;12.35;;;;;;;1.95;88.07;101270.68;1599673;89;22301;-87
2020/12/13 08:44:37;;;;;;;41.10;13.13;;;;;;;1.88;88.05;101270.27;1547880;92;21300;-87
2020/12/13 08:47:10;;;;;;;42.93;12.82;;;;;;;2.34;86.77;101284.09;1548244;92;21184;-88
2020/12/13 08:49:42;;;;;;;38.08;13.05;;;;;;;2.28;86.61;101281.68;1548061;92;21267;-88
2020/12/13 08:52:20;;;;;;;42.78;14.18;;;;;;;2.09;87.54;101287.62;1548171;92;21410;-89
2020/12/13 08:54:49;;;;;;;47.43;14.28;;;;;;;2.43;85.92;101286.95;1548064;92;21279;-88
2020/12/13 08:57:34;;;;;;;41.55;13.40;;;;;;;2.40;87.11;101256.75;1548094;92;21199;-88
2020/12/13 09:00:10;;;;;;;44.08;13.90;;;;;;;2.24;87.89;101254.34;1589790;89;21178;-88
2020/12/13 09:02:37;;;;;;;40.50;12.55;;;;;;;2.27;88.54;101243.33;1501746;95;21245;-89
2020/12/13 09:05:06;;;;;;;42.38;14.90;;;;;;;1.81;89.91;101230.34;1501772;95;21266;-87
2020/12/13 09:07:32;;;;;;;38.25;14.23;;;;;;;2.18;89.61;101233.31;1501873;95;21306;-88
2020/12/13 09:10:12;;;;;;;51.60;15.15;;;;;;;2.00;90.13;101228.91;1495938;95;21255;-89
2020/12/13 09:12:40;;;;;;;40.00;12.90;;;;;;;2.37;88.64;101223.06;1490874;95;21736;-88
2020/12/13 09:15:17;;;;;;;39.27;13.25;;;;;;;2.17;88.38;101231.65;1510076;93;21296;-88
2020/12/13 09:17:58;;;;;;;44.73;14.65;;;;;;;2.33;89.11;101239.91;1507108;95;21214;-89
2020/12/13 09:20:31;;;;;;;39.73;13.22;;;;;;;2.68;86.97;101242.70;1482184;96;21276;-89
2020/12/13 09:23:11;;;;;;;43.68;14.58;;;;;;;2.66;86.76;101212.78;1458179;96;21229;-88
2020/12/13 09:25:43;;;;;;;42.75;12.40;;;;;;;2.52;87.70;101221.66;1482276;96;21157;-89
2020/12/13 09:28:14;;;;;;;42.35;13.15;;;;;;;2.49;86.63;101213.04;1482389;96;21209;-88
2020/12/13 09:30:42;;;;;;;36.95;13.00;;;;;;;2.71;86.58;101213.86;1482384;96;21661;-88
2020/12/13 09:33:09;;;;;;;40.38;14.58;;;;;;;2.63;86.81;101225.96;1482246;96;21150;-89
2020/12/13 09:35:35;;;;;;;44.30;12.63;;;;;;;2.43;88.11;101216.47;1482224;96;21213;-88
2020/12/13 09:38:05;;;;;;;43.63;13.78;;;;;;;2.82;86.60;101204.50;1483975;95;21016;-88
2020/12/13 09:40:32;;;;;;;38.35;13.88;;;;;;;2.56;87.41;101205.63;1517898;89;21369;-88
2020/12/13 09:43:00;;;;;;;34.55;12.33;;;;;;;2.79;87.18;101200.89;1586717;89;21235;-88
2020/12/13 09:45:28;;;;;;;41.37;12.45;;;;;;;2.62;87.26;101203.04;1554801;91;21231;-88
2020/12/13 09:47:56;;;;;;;39.75;13.35;;;;;;;2.48;87.40;101205.27;1495016;95;21285;-87
2020/12/13 09:50:27;;;;;;;38.33;12.68;;;;;;;2.49;88.00;101181.63;1481376;96;21247;-87
2020/12/13 09:52:53;;;;;;;43.52;14.33;;;;;;;2.36;87.60;101174.89;1496797;93;21327;-86
2020/12/13 09:55:19;;;;;;;36.93;12.85;;;;;;;2.56;87.31;101181.68;1508861;94;21065;-87
2020/12/13 09:57:45;;;;;;;43.20;14.63;;;;;;;1.99;90.24;101178.09;1534219;92;21653;-87
2020/12/13 10:00:12;;;;;;;40.75;12.75;;;;;;;2.22;90.03;101184.56;1539577;92;20997;-88
2020/12/13 10:02:38;;;;;;;46.02;14.78;;;;;;;2.04;90.51;101161.90;1541302;92;21119;-87
2020/12/13 10:05:07;;;;;;;42.00;13.32;;;;;;;2.24;89.90;101174.06;1566297;90;21199;-87
2020/12/13 10:10:13;;;;;;;36.45;12.70;;;;;;;1.89;91.30;101177.59;1559774;91;21243;-89
2020/12/13 10:12:39;;;;;;;42.27;14.07;;;;;;;1.99;90.43;101174.92;1559962;92;21280;-89
2020/12/13 10:15:05;;;;;;;44.53;13.50;;;;;;;2.22;89.71;101186.72;1619070;86;21045;-90
2020/12/13 10:17:31;;;;;;;45.00;13.93;;;;;;;2.44;88.33;101187.55;1647514;86;21152;-88
2020/12/13 10:19:57;;;;;;;41.88;13.55;;;;;;;2.43;89.92;101192.53;1635844;86;21277;-89
2020/12/13 10:22:23;;;;;;;41.60;14.30;;;;;;;2.49;88.66;101194.42;1659547;86;21186;-88
2020/12/13 10:24:49;;;;;;;39.80;13.32;;;;;;;2.30;89.36;101213.70;1649168;86;20968;-89
2020/12/13 10:27:15;;;;;;;41.42;13.93;;;;;;;2.76;87.74;101212.44;1647268;87;21116;-88
2020/12/13 10:29:41;;;;;;;45.45;12.60;;;;;;;2.59;87.77;101206.56;1647357;86;20944;-89
2020/12/13 10:32:07;;;;;;;38.60;12.33;;;;;;;2.59;89.98;101206.56;1647396;86;21168;-88
2020/12/13 10:34:33;;;;;;;56.28;16.70;;;;;;;2.38;88.61;101192.78;1653738;86;21687;-89
2020/12/13 10:36:58;;;;;;;49.33;15.50;;;;;;;2.89;87.49;101203.24;1673198;83;21025;-89
2020/12/13 10:43:05;;;;;;;42.62;13.32;;;;;;;3.00;86.35;101205.86;1713932;83;21211;-89
2020/12/13 10:45:34;;;;;;;48.20;16.23;;;;;;;2.61;87.36;101181.94;1788469;79;21573;-89
2020/12/13 10:48:00;;;;;;;46.35;14.83;;;;;;;2.85;87.65;101204.11;1808747;79;21141;-91
2020/12/13 10:50:26;;;;;;;44.45;15.18;;;;;;;2.91;86.98;101191.88;1808640;79;21680;-90
2020/12/13 10:52:53;;;;;;;38.38;13.40;;;;;;;2.90;87.16;101189.72;1811725;77;20950;-90
2020/12/13 10:55:22;;;;;;;42.90;13.83;;;;;;;2.75;87.87;101196.17;1847006;77;21616;-90
2020/12/13 10:57:48;;;;;;;44.53;15.43;;;;;;;2.60;88.23;101202.91;1796927;77;21541;-90
2020/12/13 11:00:14;;;;;;;46.02;14.90;;;;;;;2.73;88.46;101191.84;1823861;77;20931;-90
2020/12/13 11:02:42;;;;;;;43.23;13.93;;;;;;;2.14;89.31;101177.53;1847295;77;20896;-90
2020/12/13 11:05:10;;;;;;;42.78;13.98;;;;;;;2.42;89.83;101176.78;1779254;79;21188;-89
2020/12/13 11:07:35;;;;;;;48.87;12.73;;;;;;;2.84;88.37;101176.37;1749117;81;21665;-90
2020/12/13 11:10:01;;;;;;;46.28;13.55;;;;;;;2.25;89.98;101160.25;1749285;80;21003;-90
2020/12/13 11:12:27;;;;;;;37.83;13.40;;;;;;;2.39;88.86;101159.36;1749406;81;21262;-91
2020/12/13 11:14:53;;;;;;;38.75;13.08;;;;;;;2.60;88.54;101173.13;1749396;81;21330;-90
2020/12/13 11:17:19;;;;;;;40.92;14.80;;;;;;;2.14;90.46;101164.23;1751734;80;20978;-91
2020/12/13 11:29:35;;;;;;;47.05;16.48;;;;;;;2.04;91.82;101171.72;1749214;81;21172;-91
2020/12/13 11:32:02;;;;;;;43.30;14.35;;;;;;;2.25;91.26;101171.70;1749434;81;21561;-90
2020/12/13 11:34:28;;;;;;;41.68;14.03;;;;;;;2.25;91.75;101166.39;1749119;81;21568;-89
2020/12/13 11:36:54;;;;;;;40.08;13.55;;;;;;;1.88;92.37;101159.47;1724067;81;21588;-90
2020/12/13 11:39:20;;;;;;;47.93;14.35;;;;;;;2.15;92.54;101163.75;1749170;81;21513;-90
2020/12/13 11:41:46;;;;;;;42.25;13.83;;;;;;;1.95;92.50;101148.42;1749173;81;20906;-89
2020/12/13 11:44:12;;;;;;;39.83;12.73;;;;;;;1.99;93.30;101166.14;1749213;80;21143;-90
2020/12/13 11:46:38;;;;;;;46.88;14.20;;;;;;;1.94;93.49;101168.05;1749222;81;21043;-88
2020/12/13 11:49:04;;;;;;;40.40;14.13;;;;;;;2.11;92.98;101169.11;1749351;81;20958;-89
2020/12/13 11:51:31;;;;;;;38.50;13.60;;;;;;;1.94;92.84;101172.03;1749128;81;21948;-88
2020/12/13 11:53:57;;;;;;;44.15;15.15;;;;;;;1.99;91.99;101188.22;1731799;80;21172;-89
2020/12/13 11:56:23;;;;;;;37.98;13.62;;;;;;;2.05;92.73;101179.48;1705806;84;21170;-89
2020/12/13 11:58:49;;;;;;;41.98;13.45;;;;;;;2.48;90.14;101184.80;1705582;83;21199;-89